Time;durP1;ratioP1;P1;durP2;ratioP2;P2;SDS_P1;SDS_P2;PMS_P1;PMS_P2;Temp;Humidity;BMP_temperature;BMP_pressure;BME280_temperature;BME280_humidity;BME280_pressure;Samples;Min_cycle;Max_cycle;Signal;HPM_P1;HPM_P2
2022/04/19 00:00:21;;;;;;;3.47;2.10;;;5.00;99.90;;;;;;5047991;28;20465;-52
2022/04/19 00:02:47;;;;;;;3.00;2.57;;;5.00;99.90;;;;;;5045011;28;20580;-53
2022/04/19 00:05:14;;;;;;;2.80;2.20;;;4.90;99.90;;;;;;5046135;28;20897;-53
2022/04/19 00:07:41;;;;;;;3.17;2.70;;;4.90;99.90;;;;;;5047957;28;20558;-53
2022/04/19 00:10:10;;;;;;;2.77;2.57;;;4.80;99.90;;;;;;5038641;28;20972;-52
2022/04/19 00:12:37;;;;;;;2.80;2.60;;;4.80;99.90;;;;;;5044443;28;20477;-52
2022/04/19 00:15:04;;;;;;;2.70;2.27;;;4.80;99.90;;;;;;5050499;28;20871;-52
2022/04/19 00:17:30;;;;;;;2.27;2.10;;;4.80;99.90;;;;;;5047650;28;20502;-53
2022/04/19 00:19:57;;;;;;;4.33;2.13;;;4.80;99.90;;;;;;5037646;28;20494;-52
2022/04/19 00:22:23;;;;;;;1.83;1.83;;;4.70;99.90;;;;;;5043139;28;20498;-52
2022/04/19 00:24:50;;;;;;;2.50;2.30;;;4.70;99.90;;;;;;5049496;28;20579;-52
2022/04/19 00:27:18;;;;;;;7.57;2.10;;;4.70;99.90;;;;;;5041878;28;20569;-52
2022/04/19 00:29:47;;;;;;;2.40;2.30;;;4.70;99.90;;;;;;5035175;28;20469;-52
2022/04/19 00:32:15;;;;;;;3.43;2.40;;;4.70;99.90;;;;;;5046504;28;20464;-52
2022/04/19 00:34:41;;;;;;;1.97;1.87;;;4.80;99.90;;;;;;5035426;28;20464;-52
2022/04/19 00:37:08;;;;;;;3.37;2.37;;;4.80;99.90;;;;;;5039475;28;20540;-52
2022/04/19 00:39:35;;;;;;;2.87;1.83;;;4.80;99.90;;;;;;5041556;28;20900;-53
2022/04/19 00:42:01;;;;;;;2.60;2.50;;;4.80;99.90;;;;;;5045473;28;20549;-52
2022/04/19 00:44:29;;;;;;;2.07;1.97;;;4.80;99.90;;;;;;5035556;28;20541;-51
2022/04/19 00:46:56;;;;;;;2.23;2.13;;;4.90;99.90;;;;;;5043321;28;20640;-52
2022/04/19 00:49:22;;;;;;;2.63;2.10;;;4.90;99.90;;;;;;5048487;28;20492;-52
2022/04/19 00:51:49;;;;;;;5.03;2.40;;;5.00;99.90;;;;;;5040361;28;20490;-52
2022/04/19 00:54:18;;;;;;;2.10;2.00;;;5.00;99.90;;;;;;5049045;28;20569;-51
2022/04/19 00:56:45;;;;;;;2.70;2.40;;;5.00;99.90;;;;;;5056934;28;20540;-52
2022/04/19 00:59:12;;;;;;;2.70;2.50;;;5.00;99.90;;;;;;5046398;28;20500;-52
2022/04/19 01:01:39;;;;;;;4.57;2.80;;;5.00;99.90;;;;;;5048140;28;20481;-52
2022/04/19 01:04:06;;;;;;;2.40;2.20;;;5.00;99.90;;;;;;5043582;28;20566;-52
2022/04/19 01:06:33;;;;;;;2.33;2.20;;;5.00;99.90;;;;;;5049369;28;20549;-52
2022/04/19 01:09:00;;;;;;;2.70;2.50;;;5.00;99.90;;;;;;5047061;28;20552;-51
2022/04/19 01:14:12;;;;;;;2.93;2.70;;;4.90;99.90;;;;;;5051680;28;20831;-52
2022/04/19 01:16:41;;;;;;;2.67;2.47;;;4.90;99.90;;;;;;5044905;28;20516;-52
2022/04/19 01:19:15;;;;;;;4.93;2.47;;;4.90;99.90;;;;;;5048380;28;20561;-52
2022/04/19 01:21:46;;;;;;;3.57;2.77;;;4.80;99.90;;;;;;5049881;28;20461;-51
2022/04/19 01:24:16;;;;;;;3.73;2.70;;;4.80;99.90;;;;;;5059170;28;20484;-52
2022/04/19 01:26:43;;;;;;;3.40;2.67;;;4.70;97.70;;;;;;5049438;28;20562;-53
2022/04/19 01:29:10;;;;;;;2.20;2.10;;;4.70;96.30;;;;;;5054913;28;20493;-53
2022/04/19 01:31:39;;;;;;;4.33;2.70;;;4.60;94.10;;;;;;5046684;28;20461;-52
2022/04/19 01:34:06;;;;;;;5.73;2.33;;;4.70;92.30;;;;;;5041484;28;20509;-52
2022/04/19 01:36:34;;;;;;;2.20;2.10;;;4.60;92.10;;;;;;5044152;28;21032;-52
2022/04/19 01:39:03;;;;;;;5.60;2.90;;;4.60;89.20;;;;;;5052610;28;20866;-52
2022/04/19 01:41:29;;;;;;;4.37;2.90;;;4.60;89.40;;;;;;5049463;28;20546;-52
2022/04/19 01:43:56;;;;;;;4.00;2.27;;;4.60;87.70;;;;;;5047951;28;20539;-52
2022/04/19 01:46:23;;;;;;;2.27;2.17;;;4.60;85.90;;;;;;5050130;28;21518;-51
2022/04/19 01:48:50;;;;;;;2.40;2.20;;;4.50;86.90;;;;;;5047303;28;20462;-52
2022/04/19 01:51:16;;;;;;;3.33;2.40;;;4.50;85.80;;;;;;5057587;28;20512;-52
2022/04/19 01:53:43;;;;;;;6.27;2.53;;;4.50;83.90;;;;;;5036675;28;20567;-52
2022/04/19 01:56:11;;;;;;;2.53;2.33;;;4.50;83.30;;;;;;5039396;28;20542;-52
2022/04/19 01:58:38;;;;;;;2.83;2.53;;;4.40;82.00;;;;;;5048794;28;20554;-52
2022/04/19 02:01:04;;;;;;;2.53;2.37;;;4.40;80.80;;;;;;5039592;28;20553;-53
2022/04/19 02:03:31;;;;;;;4.50;2.33;;;4.30;76.90;;;;;;5044836;28;20489;-52
2022/04/19 02:05:57;;;;;;;2.70;2.50;;;4.30;77.10;;;;;;5039009;28;20560;-52
2022/04/19 02:08:24;;;;;;;2.50;2.30;;;4.30;76.90;;;;;;5050537;28;20494;-56
2022/04/19 02:10:50;;;;;;;2.27;2.17;;;4.30;76.20;;;;;;5045033;28;20550;-52
2022/04/19 02:13:19;;;;;;;2.57;2.40;;;4.30;76.00;;;;;;5041043;28;21079;-53
2022/04/19 02:15:46;;;;;;;2.80;2.60;;;4.30;75.20;;;;;;5042086;28;20467;-52
2022/04/19 02:18:13;;;;;;;3.07;2.87;;;4.30;74.00;;;;;;5043030;28;20454;-52
2022/04/19 02:20:39;;;;;;;2.17;2.07;;;4.20;72.20;;;;;;5051330;28;20536;-52
2022/04/19 02:23:06;;;;;;;1.90;1.80;;;4.20;71.70;;;;;;5050410;28;20505;-52
2022/04/19 02:25:33;;;;;;;4.80;2.60;;;4.10;71.50;;;;;;5045096;28;20477;-51
2022/04/19 02:27:59;;;;;;;2.70;2.50;;;4.10;70.30;;;;;;5049328;28;20983;-52
2022/04/19 02:30:27;;;;;;;2.70;2.20;;;4.10;69.00;;;;;;5043879;28;20552;-52
2022/04/19 02:32:55;;;;;;;2.43;2.23;;;4.10;69.10;;;;;;5053229;28;20608;-53
2022/04/19 02:35:23;;;;;;;3.03;2.33;;;4.00;67.20;;;;;;5045298;28;20458;-52
2022/04/19 02:37:51;;;;;;;2.10;2.00;;;4.00;66.00;;;;;;5050730;28;20471;-52
2022/04/19 02:40:19;;;;;;;2.27;2.17;;;4.00;66.90;;;;;;5043216;28;20549;-52
2022/04/19 02:42:45;;;;;;;3.27;2.53;;;3.90;62.40;;;;;;5045753;28;20490;-52
2022/04/19 02:45:12;;;;;;;2.30;2.20;;;3.90;61.10;;;;;;5045908;28;20588;-52
2022/04/19 02:47:41;;;;;;;2.80;2.60;;;3.90;60.20;;;;;;5050165;28;20516;-52
2022/04/19 02:50:08;;;;;;;6.97;2.80;;;3.90;59.70;;;;;;5042643;28;20458;-52
2022/04/19 02:52:35;;;;;;;2.87;2.67;;;3.80;60.80;;;;;;5046218;28;20566;-52
2022/04/19 02:55:01;;;;;;;3.60;2.27;;;3.80;61.20;;;;;;5051841;28;20540;-53
2022/04/19 02:57:28;;;;;;;2.47;2.27;;;3.70;58.50;;;;;;5054372;28;20548;-52
2022/04/19 02:59:54;;;;;;;2.80;2.60;;;3.70;56.50;;;;;;5047433;28;20540;-52
2022/04/19 03:02:21;;;;;;;2.30;2.20;;;3.60;54.50;;;;;;5046140;28;20548;-52
2022/04/19 03:04:49;;;;;;;2.57;2.37;;;3.60;51.60;;;;;;5043541;28;20581;-52
2022/04/19 03:07:15;;;;;;;4.57;2.23;;;3.50;48.00;;;;;;5043291;28;20462;-52
2022/04/19 03:09:42;;;;;;;3.37;3.07;;;3.50;47.90;;;;;;5047377;28;20560;-52
2022/04/19 03:12:10;;;;;;;2.00;1.90;;;3.40;45.90;;;;;;5038427;28;20549;-52
2022/04/19 03:14:37;;;;;;;2.63;2.43;;;3.40;43.00;;;;;;5041683;28;20939;-52
2022/04/19 03:17:04;;;;;;;3.97;2.70;;;3.30;41.90;;;;;;5053686;28;20838;-53
2022/04/19 03:19:30;;;;;;;2.73;2.53;;;3.20;40.90;;;;;;5050086;28;20540;-52
2022/04/19 03:21:58;;;;;;;4.10;2.60;;;3.20;37.50;;;;;;5047535;28;21045;-52
2022/04/19 03:29:53;;;;;;;2.77;2.43;;;3.10;34.90;;;;;;5042142;28;20818;-52
2022/04/19 03:32:20;;;;;;;3.00;2.43;;;3.10;35.70;;;;;;5047052;28;20597;-52
2022/04/19 03:34:46;;;;;;;2.37;2.27;;;3.00;35.80;;;;;;5048796;28;20457;-52
2022/04/19 03:37:15;;;;;;;3.27;2.40;;;3.00;30.90;;;;;;5045211;28;20459;-52
2022/04/19 03:39:42;;;;;;;2.80;2.50;;;3.00;30.90;;;;;;5048788;28;20478;-52
2022/04/19 03:42:09;;;;;;;2.97;2.77;;;2.90;28.20;;;;;;5048113;28;20546;-52
2022/04/19 03:44:35;;;;;;;2.80;2.60;;;2.90;25.20;;;;;;5049059;28;20943;-54
2022/04/19 03:47:07;;;;;;;2.70;2.43;;;2.90;24.70;;;;;;5049415;28;20548;-52
2022/04/19 03:49:34;;;;;;;2.30;2.20;;;2.80;25.40;;;;;;5056585;28;20547;-52
2022/04/19 03:52:01;;;;;;;2.40;2.20;;;2.80;24.20;;;;;;5044216;28;20465;-52
2022/04/19 03:54:29;;;;;;;2.50;2.30;;;2.80;88.30;;;;;;5044656;28;20565;-52
2022/04/19 03:56:55;;;;;;;4.00;2.30;;;2.70;21.50;;;;;;5046265;28;21043;-52
2022/04/19 03:59:22;;;;;;;3.87;2.40;;;2.70;83.20;;;;;;5042571;28;20489;-52
2022/04/19 04:01:49;;;;;;;2.60;2.40;;;2.70;99.90;;;;;;5038411;28;20547;-52
2022/04/19 04:04:15;;;;;;;3.10;2.80;;;2.70;99.90;;;;;;5046628;28;20575;-52
2022/04/19 04:06:42;;;;;;;2.67;2.37;;;2.60;99.90;;;;;;5034017;28;20558;-52
2022/04/19 04:09:08;;;;;;;2.77;2.67;;;2.60;99.90;;;;;;5047087;28;20537;-52
2022/04/19 04:11:36;;;;;;;2.73;2.40;;;2.60;99.90;;;;;;5034647;28;20554;-53
2022/04/19 04:14:03;;;;;;;2.47;2.27;;;2.60;99.90;;;;;;5033088;28;20577;-52
2022/04/19 04:16:29;;;;;;;6.00;2.00;;;2.60;99.90;;;;;;5044488;28;20586;-52
2022/04/19 04:18:56;;;;;;;4.83;2.57;;;2.60;99.90;;;;;;5036636;28;20497;-52
2022/04/19 04:21:22;;;;;;;2.17;2.07;;;2.60;99.90;;;;;;5041502;28;20541;-54
2022/04/19 04:23:49;;;;;;;2.60;2.40;;;2.60;99.90;;;;;;5040469;28;20568;-54
2022/04/19 04:26:15;;;;;;;3.10;2.20;;;2.60;99.90;;;;;;5038113;28;20558;-54
2022/04/19 04:28:43;;;;;;;1.83;1.70;;;2.60;99.90;;;;;;5046231;28;20561;-53
2022/04/19 04:31:10;;;;;;;3.57;2.93;;;2.70;99.90;;;;;;5036695;28;20557;-54
2022/04/19 04:33:36;;;;;;;5.40;3.00;;;2.70;99.90;;;;;;5038065;28;20578;-53
2022/04/19 04:36:03;;;;;;;2.03;1.93;;;2.80;99.90;;;;;;5049351;28;20460;-53
2022/04/19 04:38:29;;;;;;;3.10;2.20;;;2.80;99.90;;;;;;5046262;28;20556;-53
2022/04/19 04:40:56;;;;;;;2.40;1.90;;;2.90;99.90;;;;;;5043552;28;21174;-53
2022/04/19 04:43:22;;;;;;;2.33;2.10;;;2.80;99.90;;;;;;5048716;28;20513;-53
2022/04/19 04:49:35;;;;;;;2.20;2.10;;;2.90;99.90;;;;;;5049570;28;20588;-53
2022/04/19 04:51:21;;;;;;;2.10;2.00;;;3.00;99.90;;;;;;5049154;28;20821;-53
2022/04/19 04:53:48;;;;;;;1.90;1.80;;;3.00;99.90;;;;;;5045820;28;20568;-53
2022/04/19 04:56:14;;;;;;;2.50;2.30;;;3.10;99.90;;;;;;5049613;28;20566;-54
2022/04/19 04:58:41;;;;;;;2.60;2.40;;;3.20;99.90;;;;;;5051698;28;20971;-53
2022/04/19 05:01:09;;;;;;;3.57;2.20;;;3.30;99.90;;;;;;5049113;28;20556;-53
2022/04/19 05:03:36;;;;;;;1.90;1.80;;;3.30;99.90;;;;;;5052060;28;20581;-54
2022/04/19 05:06:03;;;;;;;6.80;2.73;;;3.40;99.90;;;;;;5056591;28;20506;-54
2022/04/19 05:08:29;;;;;;;2.97;2.77;;;3.50;99.90;;;;;;5069216;28;20461;-53
2022/04/19 05:10:56;;;;;;;8.47;2.50;;;3.60;99.90;;;;;;5069092;28;20506;-53
2022/04/19 05:13:22;;;;;;;2.63;2.43;;;3.70;99.90;;;;;;5048801;28;20585;-54
2022/04/19 05:15:49;;;;;;;2.50;2.30;;;3.80;99.90;;;;;;5045834;28;20458;-53
2022/04/19 05:18:17;;;;;;;2.83;2.57;;;3.90;99.90;;;;;;5052493;28;20553;-53
2022/04/19 05:20:44;;;;;;;2.70;2.50;;;4.00;99.90;;;;;;5042000;28;20565;-53
2022/04/19 05:23:11;;;;;;;2.90;1.90;;;4.10;99.90;;;;;;5046015;28;20565;-54
2022/04/19 05:25:37;;;;;;;2.60;2.10;;;4.20;99.90;;;;;;5051794;28;21022;-54
2022/04/19 05:28:04;;;;;;;2.67;2.47;;;4.30;99.90;;;;;;5045643;28;20462;-52
2022/04/19 05:30:31;;;;;;;2.37;2.27;;;4.40;99.90;;;;;;5049689;28;20549;-53
2022/04/19 05:32:57;;;;;;;2.97;2.77;;;4.50;99.90;;;;;;5042398;28;20588;-53
2022/04/19 05:35:25;;;;;;;2.97;2.67;;;4.60;99.90;;;;;;5046957;28;20454;-52
2022/04/19 05:37:52;;;;;;;3.40;2.83;;;4.60;99.90;;;;;;5044628;28;20564;-54
2022/04/19 05:40:18;;;;;;;2.90;2.70;;;4.70;99.90;;;;;;5047322;28;20466;-54
2022/04/19 05:42:45;;;;;;;2.67;2.53;;;4.70;99.90;;;;;;5042963;28;20492;-54
2022/04/19 05:45:11;;;;;;;2.80;2.57;;;4.90;99.90;;;;;;5039458;28;20482;-54
2022/04/19 05:47:38;;;;;;;3.07;2.80;;;5.00;85.10;;;;;;5048639;28;21052;-53
2022/04/19 05:50:05;;;;;;;3.50;3.17;;;5.00;23.50;;;;;;5055388;28;20500;-53
2022/04/19 05:52:33;;;;;;;3.70;3.40;;;5.00;24.40;;;;;;5048049;28;20553;-53
2022/04/19 05:55:00;;;;;;;3.30;2.73;;;5.10;26.80;;;;;;5050535;28;20884;-52
2022/04/19 05:57:26;;;;;;;3.00;2.80;;;5.20;27.00;;;;;;5048670;28;20461;-54
2022/04/19 05:59:53;;;;;;;3.87;3.47;;;5.40;31.70;;;;;;5042338;28;20466;-53
2022/04/19 06:05:04;;;;;;;3.23;3.00;;;5.50;41.70;;;;;;5038605;28;20508;-51
2022/04/19 06:07:32;;;;;;;4.07;3.53;;;5.60;42.20;;;;;;5043517;28;20561;-54
2022/04/19 06:10:00;;;;;;;5.63;3.30;;;5.70;48.50;;;;;;5053599;23;20488;-53
2022/04/19 06:12:26;;;;;;;8.60;4.27;;;5.70;56.00;;;;;;5011537;28;20466;-54
2022/04/19 06:14:53;;;;;;;4.50;3.67;;;6.00;62.60;;;;;;5005876;28;20554;-53
2022/04/19 06:17:21;;;;;;;3.87;3.57;;;6.20;68.80;;;;;;5010631;28;20550;-53
2022/04/19 06:19:47;;;;;;;8.13;3.90;;;6.40;74.40;;;;;;5010361;28;20479;-54
2022/04/19 06:22:14;;;;;;;3.80;3.37;;;6.40;80.20;;;;;;5010997;28;20515;-53
2022/04/19 06:24:42;;;;;;;3.07;2.80;;;6.60;84.30;;;;;;5010984;28;20499;-54
2022/04/19 06:27:09;;;;;;;4.63;4.23;;;6.60;96.90;;;;;;5013876;28;20879;-54
2022/04/19 06:29:35;;;;;;;5.63;4.40;;;6.70;99.90;;;;;;5009497;28;20459;-52
2022/04/19 06:32:02;;;;;;;5.00;3.60;;;6.90;99.90;;;;;;5013567;28;20554;-52
2022/04/19 06:34:29;;;;;;;5.63;3.77;;;7.20;99.90;;;;;;5002672;28;20555;-52
2022/04/19 06:36:55;;;;;;;3.77;3.50;;;7.40;99.90;;;;;;5009125;28;20514;-54
2022/04/19 06:39:22;;;;;;;4.20;3.90;;;7.60;99.90;;;;;;5012431;28;20555;-52
2022/04/19 06:41:50;;;;;;;6.50;4.47;;;7.60;99.90;;;;;;5009297;28;20570;-53
2022/04/19 06:44:17;;;;;;;6.67;4.23;;;7.40;99.90;;;;;;5007874;28;20467;-53
2022/04/19 06:46:47;;;;;;;4.30;3.90;;;7.50;99.90;;;;;;5009311;28;20574;-52
2022/04/19 06:49:14;;;;;;;5.17;3.63;;;7.80;99.90;;;;;;5008840;28;20472;-53
2022/04/19 06:51:41;;;;;;;4.20;3.63;;;8.10;99.90;;;;;;5010639;28;20582;-53
2022/04/19 06:54:07;;;;;;;9.23;3.70;;;8.40;99.90;;;;;;5012527;28;21046;-53
2022/04/19 06:56:35;;;;;;;8.10;4.33;;;8.70;99.90;;;;;;5013717;28;20459;-53
2022/04/19 06:59:03;;;;;;;11.60;4.20;;;8.80;99.90;;;;;;5007238;28;20502;-53
2022/04/19 07:01:29;;;;;;;5.80;4.57;;;9.00;99.90;;;;;;5009183;28;21014;-53
2022/04/19 07:03:56;;;;;;;14.23;3.67;;;9.20;99.90;;;;;;5006809;28;20496;-53
2022/04/19 07:06:23;;;;;;;7.10;4.30;;;9.30;99.90;;;;;;5009193;28;20526;-53
2022/04/19 07:08:49;;;;;;;6.63;4.10;;;9.20;99.90;;;;;;5014450;28;20813;-53
2022/04/19 07:11:16;;;;;;;4.20;3.90;;;9.00;99.90;;;;;;5008828;28;20582;-53
2022/04/19 07:13:43;;;;;;;5.00;4.57;;;9.20;99.90;;;;;;5015472;28;20470;-53
2022/04/19 07:16:11;;;;;;;5.83;3.93;;;9.10;99.90;;;;;;5012001;28;20460;-53
2022/04/19 07:18:38;;;;;;;4.37;3.97;;;9.40;99.90;;;;;;5006491;28;20994;-53
2022/04/19 07:26:38;;;;;;;10.63;4.60;;;9.50;99.90;;;;;;5002155;28;20587;-53
2022/04/19 07:29:05;;;;;;;4.43;3.80;;;9.70;99.90;;;;;;5006584;28;20512;-54
2022/04/19 07:31:33;;;;;;;7.93;4.23;;;9.80;99.90;;;;;;5007517;28;20593;-53
2022/04/19 07:34:00;;;;;;;6.73;3.60;;;9.70;99.90;;;;;;5004037;28;20919;-53
2022/04/19 07:36:26;;;;;;;5.07;4.57;;;9.80;99.90;;;;;;5004827;28;20545;-54
2022/04/19 07:38:53;;;;;;;5.83;3.57;;;10.00;99.90;;;;;;5011224;28;20665;-54
2022/04/19 07:41:20;;;;;;;4.80;4.17;;;10.40;99.90;;;;;;5008032;28;20566;-52
2022/04/19 07:43:47;;;;;;;3.97;3.57;;;10.40;99.90;;;;;;5005452;28;20482;-52
2022/04/19 07:46:15;;;;;;;6.33;4.33;;;10.60;99.90;;;;;;5008141;28;20483;-54
2022/04/19 07:48:43;;;;;;;4.10;3.80;;;10.70;99.90;;;;;;5010145;28;20467;-53
2022/04/19 07:51:10;;;;;;;14.13;3.03;;;11.10;99.90;;;;;;5009131;28;20480;-54
2022/04/19 07:53:37;;;;;;;3.63;3.33;;;10.80;99.90;;;;;;5005356;28;20503;-53
2022/04/19 07:56:04;;;;;;;3.73;3.10;;;11.00;99.90;;;;;;5005764;28;20547;-53
2022/04/19 07:58:31;;;;;;;5.10;3.80;;;11.30;99.90;;;;;;5006823;28;20546;-52
2022/04/19 08:00:57;;;;;;;3.40;3.00;;;11.30;99.90;;;;;;5003500;28;20493;-53
2022/04/19 08:03:24;;;;;;;15.13;2.97;;;11.60;99.90;;;;;;5007363;28;20470;-53
2022/04/19 08:05:52;;;;;;;6.80;3.00;;;11.60;99.90;;;;;;5005369;28;20484;-53
2022/04/19 08:08:18;;;;;;;3.27;2.97;;;12.00;99.90;;;;;;5008682;28;21081;-53
2022/04/19 08:10:45;;;;;;;6.90;2.93;;;12.10;99.90;;;;;;5004447;28;20490;-52
2022/04/19 08:13:12;;;;;;;23.87;4.03;;;12.50;99.90;;;;;;5006613;28;20487;-54
2022/04/19 08:15:38;;;;;;;6.20;3.30;;;12.70;99.90;;;;;;5005882;28;20535;-54
2022/04/19 08:18:05;;;;;;;12.87;2.80;;;12.70;99.90;;;;;;5005577;28;20491;-54
2022/04/19 08:20:31;;;;;;;2.37;2.27;;;13.10;99.90;;;;;;5007763;28;21267;-52
2022/04/19 08:22:59;;;;;;;2.83;2.63;;;13.50;99.90;;;;;;4997084;28;20552;-52
2022/04/19 08:25:26;;;;;;;2.43;2.23;;;12.70;99.90;;;;;;5007048;28;20479;-52
2022/04/19 08:27:53;;;;;;;4.47;2.20;;;12.60;99.90;;;;;;5010483;28;20563;-53
2022/04/19 08:30:20;;;;;;;3.33;2.10;;;12.90;99.90;;;;;;5007230;28;21070;-53
2022/04/19 08:32:46;;;;;;;2.90;2.10;;;12.90;99.90;;;;;;5005493;28;20895;-52
2022/04/19 08:35:13;;;;;;;2.33;2.13;;;13.10;99.90;;;;;;5002036;28;20555;-52
2022/04/19 08:37:40;;;;;;;2.90;2.07;;;13.30;99.90;;;;;;5008251;28;20542;-54
2022/04/19 08:40:10;;;;;;;2.60;2.23;;;13.60;99.90;;;;;;5010582;28;20550;-53
2022/04/19 08:42:39;;;;;;;6.20;2.80;;;13.70;99.90;;;;;;5008893;28;20530;-53
2022/04/19 08:45:08;;;;;;;14.57;2.70;;;14.60;99.90;;;;;;5011245;28;20502;-53
2022/04/19 08:47:40;;;;;;;3.10;2.80;;;15.00;99.90;;;;;;4991532;28;20520;-52
2022/04/19 08:50:09;;;;;;;1.93;1.83;;;14.80;99.90;;;;;;4996565;28;20569;-52
2022/04/19 08:52:36;;;;;;;2.83;2.63;;;14.80;99.90;;;;;;5010571;28;20455;-53
2022/04/19 08:58:05;;;;;;;3.63;1.77;;;15.00;99.90;;;;;;4981738;28;20436;-54
2022/04/19 09:00:32;;;;;;;1.70;1.60;;;14.80;99.90;;;;;;4970060;28;20581;-53
2022/04/19 09:02:58;;;;;;;1.93;1.80;;;15.20;99.90;;;;;;4979566;28;20539;-54
2022/04/19 09:05:27;;;;;;;1.87;1.70;;;14.80;99.90;;;;;;5010990;28;20862;-52
2022/04/19 09:07:57;;;;;;;2.40;1.73;;;15.00;99.90;;;;;;5005226;28;20951;-52
2022/04/19 09:10:28;;;;;;;4.10;1.80;;;15.00;99.90;;;;;;5004990;28;20497;-52
2022/04/19 09:13:00;;;;;;;1.70;1.60;;;15.30;99.90;;;;;;5000943;28;20551;-53
2022/04/19 09:15:35;;;;;;;2.10;1.60;;;15.10;99.90;;;;;;5007192;28;20475;-52
2022/04/19 09:18:03;;;;;;;3.83;1.50;;;15.30;99.90;;;;;;5008632;28;20558;-51
2022/04/19 09:20:31;;;;;;;1.93;1.67;;;15.80;99.90;;;;;;5005261;28;20519;-53
2022/04/19 09:23:05;;;;;;;1.97;1.87;;;15.70;99.90;;;;;;5000924;28;20470;-53
2022/04/19 09:25:32;;;;;;;5.33;1.80;;;16.10;99.90;;;;;;5005035;28;20538;-52
2022/04/19 09:27:59;;;;;;;2.50;1.53;;;16.30;99.90;;;;;;5005390;28;20452;-52
2022/04/19 09:30:28;;;;;;;1.87;1.50;;;16.40;99.90;;;;;;5005688;28;20486;-52
2022/04/19 09:33:04;;;;;;;2.03;1.83;;;15.50;99.90;;;;;;5001913;28;20559;-53
2022/04/19 09:35:32;;;;;;;2.30;1.50;;;16.10;99.90;;;;;;5006786;28;20463;-52
2022/04/19 09:37:59;;;;;;;4.03;2.37;;;15.90;99.90;;;;;;5001976;28;20555;-52
2022/04/19 09:40:34;;;;;;;1.40;1.30;;;16.50;99.90;;;;;;5009536;28;20491;-51
2022/04/19 09:43:11;;;;;;;5.50;1.87;;;16.60;99.90;;;;;;5013302;28;20490;-52
2022/04/19 09:45:56;;;;;;;3.03;1.70;;;16.50;99.90;;;;;;5007208;28;20484;-53
2022/04/19 09:48:26;;;;;;;2.13;1.40;;;17.40;99.90;;;;;;5007957;28;20463;-52
2022/04/19 09:50:59;;;;;;;2.27;1.73;;;17.10;99.90;;;;;;5001544;28;20479;-53
2022/04/19 09:53:27;;;;;;;1.40;1.30;;;17.30;99.90;;;;;;5010558;28;20467;-52
2022/04/19 09:55:55;;;;;;;1.63;1.37;;;17.60;99.90;;;;;;5011264;28;21001;-52
2022/04/19 09:58:23;;;;;;;1.50;1.40;;;16.90;99.90;;;;;;5011313;28;20556;-52
2022/04/19 10:00:52;;;;;;;1.43;1.33;;;17.40;99.90;;;;;;5009691;28;20570;-51
2022/04/19 10:08:58;;;;;;;2.60;1.47;;;18.60;99.90;;;;;;5011650;28;21042;-53
2022/04/19 10:11:26;;;;;;;1.57;1.40;;;18.10;99.90;;;;;;5015686;28;21097;-52
2022/04/19 10:13:54;;;;;;;1.23;1.23;;;17.80;99.90;;;;;;5009356;28;20550;-51
2022/04/19 10:16:21;;;;;;;4.67;1.60;;;17.70;99.90;;;;;;5008698;28;21097;-52
2022/04/19 10:18:48;;;;;;;1.00;1.00;;;17.80;99.90;;;;;;5009046;28;20534;-52
2022/04/19 10:21:19;;;;;;;1.63;1.40;;;17.00;99.90;;;;;;5005759;28;20535;-53
2022/04/19 10:23:46;;;;;;;2.20;1.40;;;17.70;99.90;;;;;;5009748;28;20491;-52
2022/04/19 10:26:19;;;;;;;3.27;1.57;;;18.10;99.90;;;;;;5009367;28;20479;-51
2022/04/19 10:28:46;;;;;;;1.47;1.37;;;18.50;99.90;;;;;;5009140;28;20542;-52
2022/04/19 10:31:14;;;;;;;1.20;1.10;;;18.10;99.90;;;;;;5010892;28;20566;-51
2022/04/19 10:33:49;;;;;;;1.97;1.17;;;17.10;99.90;;;;;;5008463;28;20539;-51
2022/04/19 10:36:20;;;;;;;2.10;1.30;;;17.40;99.90;;;;;;5005394;28;20462;-52
2022/04/19 10:39:08;;;;;;;3.27;1.53;;;18.00;99.90;;;;;;5010596;28;20466;-53
2022/04/19 10:41:53;;;;;;;1.20;1.20;;;18.10;99.90;;;;;;5006861;28;20974;-52
2022/04/19 10:44:24;;;;;;;9.10;1.40;;;18.50;99.90;;;;;;5008012;28;20885;-53
2022/04/19 10:47:13;;;;;;;1.00;1.00;;;17.70;99.90;;;;;;5006802;28;20487;-52
2022/04/19 10:49:59;;;;;;;1.20;1.20;;;18.20;99.90;;;;;;5007982;28;20955;-51
2022/04/19 10:52:51;;;;;;;2.70;1.37;;;17.50;99.90;;;;;;5010795;28;20456;-51
2022/04/19 10:55:23;;;;;;;1.27;1.20;;;18.30;99.90;;;;;;5012176;28;20452;-52
2022/04/19 10:58:08;;;;;;;1.33;1.27;;;18.20;99.90;;;;;;5010559;28;20521;-53
2022/04/19 11:00:47;;;;;;;1.63;1.40;;;18.40;99.90;;;;;;5010908;28;20882;-52
2022/04/19 11:03:15;;;;;;;1.40;1.30;;;18.30;99.90;;;;;;5004301;28;20474;-52
2022/04/19 11:05:44;;;;;;;1.83;1.20;;;18.50;99.90;;;;;;5011710;28;20460;-53
2022/04/19 11:08:23;;;;;;;2.20;1.10;;;18.10;99.90;;;;;;5006960;28;20488;-51
2022/04/19 11:10:50;;;;;;;1.40;1.30;;;16.80;99.90;;;;;;5004090;28;20558;-53
2022/04/19 11:13:19;;;;;;;4.40;1.57;;;16.80;99.90;;;;;;4993440;28;20536;-53
2022/04/19 11:15:57;;;;;;;1.43;1.10;;;16.20;99.90;;;;;;5006622;28;20467;-52
2022/04/19 11:18:24;;;;;;;3.60;1.50;;;15.80;99.90;;;;;;5012234;28;20879;-53
2022/04/19 11:20:52;;;;;;;1.33;1.23;;;15.00;99.90;;;;;;5012604;28;20834;-53
2022/04/19 11:23:21;;;;;;;1.93;1.33;;;15.00;99.90;;;;;;5011795;28;20452;-52
2022/04/19 11:25:49;;;;;;;2.67;1.47;;;15.40;99.90;;;;;;5012288;28;21141;-52
2022/04/19 11:28:21;;;;;;;1.43;1.33;;;15.20;99.90;;;;;;5011144;28;20475;-53
2022/04/19 11:31:08;;;;;;;6.53;1.40;;;14.50;99.90;;;;;;5010976;28;20901;-52
2022/04/19 11:33:36;;;;;;;4.63;1.70;;;14.50;99.90;;;;;;5007424;28;20550;-52
2022/04/19 11:36:05;;;;;;;2.80;1.30;;;14.50;99.90;;;;;;5010533;28;20486;-52
2022/04/19 11:38:34;;;;;;;1.63;1.53;;;15.80;99.90;;;;;;5009965;28;20551;-52
2022/04/19 11:46:47;;;;;;;5.57;1.20;;;15.20;99.90;;;;;;5010888;28;20486;-52
2022/04/19 11:49:30;;;;;;;7.83;1.80;;;15.60;99.90;;;;;;5005456;28;20573;-52
2022/04/19 11:51:58;;;;;;;3.23;1.50;;;16.40;99.90;;;;;;5012831;28;20550;-51
2022/04/19 11:54:28;;;;;;;20.83;1.70;;;16.00;99.90;;;;;;5012790;28;21035;-52
2022/04/19 11:56:56;;;;;;;1.63;1.53;;;15.80;99.90;;;;;;5009124;28;20459;-53
2022/04/19 11:59:27;;;;;;;1.50;1.40;;;15.80;99.90;;;;;;5010010;28;20460;-52
2022/04/19 12:01:55;;;;;;;3.13;1.67;;;16.10;99.90;;;;;;5010130;28;20483;-51
2022/04/19 12:04:22;;;;;;;1.43;1.43;;;15.40;99.90;;;;;;5006122;28;20885;-52
2022/04/19 12:06:50;;;;;;;4.30;1.60;;;15.60;99.90;;;;;;5009892;28;20574;-52
2022/04/19 12:09:17;;;;;;;9.63;2.63;;;15.60;99.90;;;;;;5014420;28;20463;-52
2022/04/19 12:11:47;;;;;;;3.17;1.43;;;15.30;99.90;;;;;;5035090;23;20495;-55
2022/04/19 12:14:24;;;;;;;2.30;1.77;;;14.60;99.90;;;;;;5023809;28;20448;-55
2022/04/19 12:16:59;;;;;;;2.80;2.00;;;14.90;99.90;;;;;;5025768;28;20529;-55
2022/04/19 12:19:38;;;;;;;3.33;2.10;;;14.80;99.90;;;;;;5029622;28;20564;-56
2022/04/19 12:22:15;;;;;;;10.53;1.70;;;14.70;99.90;;;;;;5022521;28;20483;-56
2022/04/19 12:24:46;;;;;;;5.80;1.73;;;14.50;99.90;;;;;;5025127;28;20566;-55
2022/04/19 12:27:14;;;;;;;2.40;2.20;;;14.50;99.90;;;;;;5028726;28;20553;-55
2022/04/19 12:29:56;;;;;;;3.60;1.53;;;14.60;99.90;;;;;;5027720;28;20521;-54
2022/04/19 12:32:22;;;;;;;8.40;1.97;;;14.50;99.90;;;;;;5022482;28;20609;-54
2022/04/19 12:34:50;;;;;;;6.53;1.87;;;14.50;99.90;;;;;;5019133;28;20561;-55
2022/04/19 12:37:19;;;;;;;8.93;2.30;;;14.50;99.90;;;;;;5021885;28;20459;-55
2022/04/19 12:39:58;;;;;;;6.50;2.40;;;15.50;99.90;;;;;;5028381;28;20471;-55
2022/04/19 12:42:26;;;;;;;2.60;1.50;;;15.30;99.90;;;;;;5024120;28;21125;-55
2022/04/19 12:45:04;;;;;;;8.03;2.20;;;15.40;99.90;;;;;;5023562;28;20579;-56
2022/04/19 12:47:31;;;;;;;29.77;2.53;;;15.20;99.90;;;;;;5023401;28;20591;-55
2022/04/19 12:49:58;;;;;;;13.63;1.60;;;15.00;99.90;;;;;;5026413;28;20513;-54
2022/04/19 12:52:32;;;;;;;14.73;2.43;;;14.90;99.90;;;;;;5025547;28;21002;-54
2022/04/19 12:55:01;;;;;;;7.13;2.00;;;15.60;99.90;;;;;;5019779;28;20541;-55
2022/04/19 12:57:29;;;;;;;9.07;2.57;;;15.90;99.90;;;;;;5023175;28;20497;-54
2022/04/19 12:59:55;;;;;;;3.73;2.07;;;16.10;99.90;;;;;;5030050;28;20538;-54
2022/04/19 13:02:22;;;;;;;10.50;2.60;;;16.70;99.90;;;;;;5028449;28;20565;-55
2022/04/19 13:04:49;;;;;;;3.73;1.90;;;16.60;99.90;;;;;;5025788;28;20539;-55
2022/04/19 13:12:49;;;;;;;3.23;1.67;;;15.00;99.90;;;;;;5031882;28;20548;-56
2022/04/19 13:15:16;;;;;;;2.20;1.60;;;14.90;99.90;;;;;;5022935;28;20466;-54
2022/04/19 13:17:43;;;;;;;2.30;1.80;;;14.90;99.90;;;;;;5027395;28;20526;-55
2022/04/19 13:20:11;;;;;;;3.57;1.63;;;16.20;99.90;;;;;;5016717;28;20459;-55
2022/04/19 13:22:37;;;;;;;5.23;1.63;;;16.90;99.90;;;;;;5023051;28;20565;-55
2022/04/19 13:25:05;;;;;;;1.87;1.77;;;17.30;99.90;;;;;;5030531;28;20542;-56
2022/04/19 13:27:35;;;;;;;2.03;1.93;;;16.50;99.90;;;;;;5024366;28;20575;-55
2022/04/19 13:33:25;;;;;;;4.87;2.53;;;17.10;99.90;;;;;;5022096;28;21036;-55
2022/04/19 13:35:51;;;;;;;6.20;2.00;;;17.00;99.90;;;;;;5036320;28;20497;-55
2022/04/19 13:38:24;;;;;;;2.27;1.97;;;16.10;99.90;;;;;;5025314;28;20486;-56
2022/04/19 13:40:51;;;;;;;6.70;3.13;;;15.60;99.90;;;;;;5030568;28;20533;-55